Time;durP1;ratioP1;P1;durP2;ratioP2;P2;SDS_P1;SDS_P2;PMS_P1;PMS_P2;Temp;Humidity;BMP_temperature;BMP_pressure;BME280_temperature;BME280_humidity;BME280_pressure;Samples;Min_cycle;Max_cycle;Signal;HPM_P1;HPM_P2
2022/10/04 00:02:13;;;;;;;3.67;1.30;;;;;;;16.44;43.90;99575.00;5091370;28;20082;-79
2022/10/04 00:04:44;;;;;;;2.30;1.38;;;;;;;16.41;43.91;99583.44;5092493;28;20052;-79
2022/10/04 00:07:12;;;;;;;2.50;1.30;;;;;;;16.39;43.76;99574.00;5092076;28;20020;-79
2022/10/04 00:09:51;;;;;;;3.40;1.65;;;;;;;16.38;43.71;99583.84;5090744;28;20028;-78
2022/10/04 00:12:25;;;;;;;2.25;1.38;;;;;;;15.99;43.81;99514.81;5092154;28;20036;-79
2022/10/04 00:14:54;;;;;;;1.73;1.40;;;;;;;16.36;44.00;99580.59;5091953;28;20035;-79
2022/10/04 00:17:24;;;;;;;2.50;1.20;;;;;;;16.43;43.81;99577.88;5091936;28;20489;-79
2022/10/04 00:19:51;;;;;;;2.55;1.17;;;;;;;15.89;43.62;99504.63;5091826;28;20459;-79
2022/10/04 00:22:22;;;;;;;3.05;1.40;;;;;;;16.35;43.76;99578.97;5090566;28;20020;-79
2022/10/04 00:25:06;;;;;;;3.55;1.50;;;;;;;16.31;43.74;99574.25;5091776;28;20039;-79
2022/10/04 00:27:32;;;;;;;1.85;1.20;;;;;;;16.25;44.11;99586.56;5091666;28;20389;-79
2022/10/04 00:30:00;;;;;;;4.60;1.70;;;;;;;16.28;44.05;99567.50;5091851;28;20103;-79
2022/10/04 00:32:40;;;;;;;2.97;1.42;;;;;;;16.29;43.89;99576.31;5091625;28;20035;-79
2022/10/04 00:35:24;;;;;;;2.28;1.40;;;;;;;16.32;43.77;99576.69;5091587;28;20069;-79
2022/10/04 00:38:07;;;;;;;4.97;1.42;;;;;;;15.81;43.74;99511.00;5091671;28;20028;-79
2022/10/04 00:40:48;;;;;;;3.42;1.50;;;;;;;15.81;43.70;99519.00;5090262;28;20024;-79
2022/10/04 00:43:19;;;;;;;2.08;1.42;;;;;;;15.92;43.96;99525.50;5091368;28;20023;-79
2022/10/04 00:45:58;;;;;;;3.10;1.33;;;;;;;15.60;43.53;99466.03;5091282;28;20024;-79
2022/10/04 00:48:29;;;;;;;2.85;1.55;;;;;;;16.09;43.86;99545.28;5091625;28;20028;-79
2022/10/04 00:51:09;;;;;;;1.65;1.00;;;;;;;15.68;43.79;99500.44;5091692;28;20019;-79
2022/10/04 00:53:46;;;;;;;2.22;1.33;;;;;;;16.15;43.86;99572.91;5091786;28;20035;-79
2022/10/04 00:56:20;;;;;;;2.92;1.48;;;;;;;16.19;43.97;99569.59;5091608;28;20047;-79
2022/10/04 00:59:02;;;;;;;3.15;1.23;;;;;;;15.83;43.82;99506.28;5091547;28;20404;-78
2022/10/04 01:01:29;;;;;;;2.38;1.40;;;;;;;16.09;43.79;99547.94;5091414;28;20047;-79
2022/10/04 01:03:57;;;;;;;2.95;1.40;;;;;;;16.21;43.89;99569.38;5092470;28;20035;-79
2022/10/04 01:06:25;;;;;;;3.33;1.08;;;;;;;16.26;43.33;99563.41;5097709;28;20021;-79
2022/10/04 01:08:54;;;;;;;2.15;1.00;;;;;;;15.73;43.50;99489.16;5114323;28;20005;-79
2022/10/04 01:11:27;;;;;;;4.35;1.40;;;;;;;15.84;43.66;99510.59;5121940;28;20028;-79
2022/10/04 01:14:02;;;;;;;2.13;1.30;;;;;;;16.14;43.74;99566.75;5098520;28;20027;-79
2022/10/04 01:16:30;;;;;;;2.15;1.17;;;;;;;13.84;43.76;99210.19;5095661;28;20051;-79
2022/10/04 01:19:21;;;;;;;3.25;1.30;;;;;;;16.12;43.41;99578.66;5094679;28;20016;-79
2022/10/04 01:22:07;;;;;;;3.53;1.55;;;;;;;15.84;43.62;99541.72;5093888;28;20081;-78
2022/10/04 01:24:38;;;;;;;1.77;1.10;;;;;;;15.46;43.68;99491.88;5088189;28;20119;-79
2022/10/04 01:27:30;;;;;;;1.30;1.20;;;;;;;15.92;43.95;99568.09;5093824;28;20080;-79
2022/10/04 01:29:57;;;;;;;2.42;1.10;;;;;;;15.64;43.78;99520.50;5095135;28;20024;-78
2022/10/04 01:32:22;;;;;;;4.43;1.40;;;;;;;15.84;43.85;99561.16;5095292;28;20047;-78
2022/10/04 01:34:48;;;;;;;4.93;1.38;;;;;;;15.29;43.75;99506.66;5100546;28;20016;-79
2022/10/04 01:37:13;;;;;;;3.47;1.20;;;;;;;14.79;43.98;99400.00;5115024;28;20405;-78
2022/10/04 01:39:39;;;;;;;3.80;1.75;;;;;;;15.72;44.03;99559.38;5103889;28;20031;-79
2022/10/04 01:42:17;;;;;;;2.38;1.40;;;;;;;15.99;43.85;99595.50;5095058;28;20056;-79
2022/10/04 01:44:50;;;;;;;1.90;1.15;;;;;;;15.98;44.01;99601.88;5095225;28;20389;-79
2022/10/04 01:47:23;;;;;;;3.40;1.65;;;;;;;15.78;43.76;99578.00;5094869;28;20096;-78
2022/10/04 01:49:51;;;;;;;2.22;1.23;;;;;;;15.46;43.77;99528.28;5094698;28;20030;-79
2022/10/04 01:52:18;;;;;;;1.10;1.00;;;;;;;15.98;43.58;99607.19;5094612;28;20020;-78
2022/10/04 01:54:49;;;;;;;2.85;1.38;;;;;;;15.98;43.62;99599.22;5094548;28;20028;-79
2022/10/04 01:57:20;;;;;;;3.55;1.27;;;;;;;15.54;43.88;99552.84;5094530;28;20085;-78
2022/10/04 02:00:00;;;;;;;2.60;1.00;;;;;;;15.67;43.91;99562.69;5094313;28;20024;-79
2022/10/04 02:02:34;;;;;;;4.40;1.20;;;;;;;15.41;44.08;99536.91;5093140;28;20048;-79
2022/10/04 02:05:02;;;;;;;2.00;1.20;;;;;;;16.00;43.50;99617.63;5094375;28;20048;-79
2022/10/04 02:07:31;;;;;;;4.25;1.40;;;;;;;15.54;43.76;99552.00;5093159;28;20024;-79
2022/10/04 02:10:04;;;;;;;4.43;1.17;;;;;;;15.81;43.56;99604.19;5094269;28;20051;-79
2022/10/04 02:12:30;;;;;;;2.45;0.90;;;;;;;15.67;43.57;99568.00;5094344;28;20039;-79
2022/10/04 02:14:58;;;;;;;2.58;1.20;;;;;;;16.07;43.47;99623.75;5094080;28;20075;-78
2022/10/04 02:17:31;;;;;;;1.77;1.20;;;;;;;15.58;43.46;99587.84;5093602;28;20032;-81
2022/10/04 02:19:58;;;;;;;2.45;1.38;;;;;;;16.08;43.89;99622.72;5094189;28;20106;-79
2022/10/04 02:22:25;;;;;;;3.72;1.35;;;;;;;15.62;43.48;99551.84;5094114;28;20024;-80
2022/10/04 02:24:53;;;;;;;3.03;1.23;;;;;;;15.97;43.83;99623.38;5094126;28;20024;-79
2022/10/04 02:27:19;;;;;;;2.80;1.40;;;;;;;15.45;43.70;99545.28;5094072;28;20028;-79
2022/10/04 02:29:44;;;;;;;2.17;1.52;;;;;;;15.14;44.06;99476.84;5092699;28;20389;-79
2022/10/04 02:34:57;;;;;;;3.13;1.45;;;;;;;15.58;43.81;99575.38;5093786;28;20114;-79
2022/10/04 02:37:25;;;;;;;2.60;1.40;;;;;;;15.53;44.03;99588.44;5093837;28;20102;-79
2022/10/04 02:40:12;;;;;;;2.15;1.30;;;;;;;15.47;44.34;99581.31;5092711;28;20024;-79
2022/10/04 02:42:58;;;;;;;4.13;1.10;;;;;;;15.75;44.57;99633.50;5092613;28;20039;-79
2022/10/04 02:45:35;;;;;;;2.25;1.23;;;;;;;15.68;44.59;99633.50;5093509;28;20030;-79
2022/10/04 02:48:10;;;;;;;3.20;1.60;;;;;;;15.04;44.41;99534.94;5093640;28;20500;-80
2022/10/04 02:50:44;;;;;;;2.38;1.73;;;;;;;15.23;44.85;99560.69;5092425;28;20523;-79
2022/10/04 02:53:36;;;;;;;8.40;1.65;;;;;;;15.52;45.05;99629.41;5093660;28;20513;-79
2022/10/04 02:56:02;;;;;;;;;;;;;;;15.42;45.08;99641.50;5094446;28;20024;-79
2022/10/04 02:58:29;;;;;;;2.60;1.60;;;;;;;15.07;44.95;99585.06;5092262;28;19900;-79
2022/10/04 03:00:59;;;;;;;1.67;1.27;;;;;;;14.66;45.28;99505.50;5093449;28;20047;-79
2022/10/04 03:03:28;;;;;;;2.05;1.60;;;;;;;15.10;45.07;99574.00;5092020;28;20034;-79
2022/10/04 03:06:03;;;;;;;3.05;1.63;;;;;;;15.21;45.18;99611.44;5093462;28;20024;-79
2022/10/04 03:08:34;;;;;;;7.32;2.17;;;;;;;15.26;45.16;99594.84;5091899;28;20060;-79
2022/10/04 03:11:03;;;;;;;2.92;1.70;;;;;;;15.46;45.42;99646.19;5093460;28;20024;-79
2022/10/04 03:13:30;;;;;;;5.90;1.92;;;;;;;15.41;45.56;99640.66;5093428;28;20031;-79
2022/10/04 03:15:55;;;;;;;3.65;1.67;;;;;;;14.98;45.41;99568.50;5093156;28;20107;-79
2022/10/04 03:18:22;;;;;;;4.47;1.98;;;;;;;14.66;45.52;99516.16;5091812;28;20063;-79
2022/10/04 03:20:48;;;;;;;3.83;2.22;;;;;;;15.13;45.65;99589.56;5091893;28;20016;-79
2022/10/04 03:23:18;;;;;;;3.15;1.90;;;;;;;15.43;45.71;99648.44;5093117;28;20035;-79
2022/10/04 03:25:59;;;;;;;4.43;2.30;;;;;;;15.37;45.83;99642.09;5092914;28;20085;-79
2022/10/04 03:28:27;;;;;;;3.05;1.88;;;;;;;14.78;45.79;99562.34;5091849;28;20053;-79
2022/10/04 03:30:54;;;;;;;3.97;2.13;;;;;;;14.94;45.74;99604.50;5092783;28;20043;-79
2022/10/04 03:33:23;;;;;;;5.25;2.05;;;;;;;15.41;45.96;99655.81;5092993;28;20572;-79
2022/10/04 03:35:54;;;;;;;2.42;1.95;;;;;;;14.62;46.00;99531.69;5092874;28;20028;-79
2022/10/04 03:38:22;;;;;;;2.72;2.10;;;;;;;14.79;45.98;99562.13;5093133;28;20028;-79
2022/10/04 03:40:57;;;;;;;4.75;2.38;;;;;;;14.52;45.75;99531.28;5091172;28;20043;-80
2022/10/04 03:43:27;;;;;;;3.33;1.90;;;;;;;15.20;46.01;99639.06;5092930;28;20032;-79
2022/10/04 03:45:54;;;;;;;3.65;2.15;;;;;;;15.44;45.84;99655.41;5092403;28;20481;-79
2022/10/04 03:48:44;;;;;;;2.72;1.73;;;;;;;14.85;45.69;99574.59;5091007;28;20061;-80
2022/10/04 03:51:15;;;;;;;2.45;1.90;;;;;;;15.34;45.83;99655.00;5087018;28;20531;-78
2022/10/04 03:53:44;;;;;;;3.37;1.93;;;;;;;15.07;45.84;99631.09;5091139;28;20035;-79
2022/10/04 03:56:18;;;;;;;2.22;1.73;;;;;;;14.81;45.85;99588.50;5092230;28;20065;-79
2022/10/04 03:58:45;;;;;;;2.30;1.52;;;;;;;15.06;46.02;99629.44;5092351;28;20131;-79
2022/10/04 04:01:19;;;;;;;4.22;1.60;;;;;;;15.26;46.11;99667.50;5092043;28;20052;-79
2022/10/04 04:03:54;;;;;;;3.00;1.90;;;;;;;14.30;46.07;99522.63;5092294;28;20020;-79
2022/10/04 04:06:22;;;;;;;3.97;2.00;;;;;;;14.15;45.81;99548.56;5092565;28;20024;-79
2022/10/04 04:08:51;;;;;;;3.38;2.00;;;;;;;14.78;46.12;99620.81;5092312;28;20028;-79
2022/10/04 04:11:25;;;;;;;4.05;1.70;;;;;;;15.20;46.33;99683.44;5090811;28;20030;-80
2022/10/04 04:14:02;;;;;;;3.03;2.53;;;;;;;15.20;45.73;99686.94;5091999;28;20024;-79
2022/10/04 04:16:29;;;;;;;3.25;1.70;;;;;;;14.33;45.97;99535.50;5092252;28;20024;-79
2022/10/04 04:19:00;;;;;;;3.75;1.85;;;;;;;14.81;46.16;99625.72;5092167;28;20480;-80
2022/10/04 04:21:27;;;;;;;4.28;1.88;;;;;;;14.84;46.00;99625.31;5092088;28;20019;-79
2022/10/04 04:24:00;;;;;;;5.50;1.88;;;;;;;14.52;45.93;99582.56;5092112;28;20054;-79
2022/10/04 04:26:26;;;;;;;3.92;2.15;;;;;;;15.18;46.07;99686.31;5091679;28;20090;-79
2022/10/04 04:29:02;;;;;;;3.80;2.13;;;;;;;14.85;46.35;99634.94;5091768;28;20036;-79
2022/10/04 04:31:36;;;;;;;3.47;2.22;;;;;;;15.19;46.74;99700.44;5090361;28;20031;-79
2022/10/04 04:34:14;;;;;;;3.22;2.55;;;;;;;15.15;46.47;99708.00;5090408;28;20030;-79
2022/10/04 04:36:40;;;;;;;3.63;2.60;;;;;;;14.90;46.52;99657.25;5091585;28;20019;-79
2022/10/04 04:42:23;;;;;;;5.72;2.30;;;;;;;14.93;46.73;99678.13;5092246;28;20129;-79
2022/10/04 04:44:56;;;;;;;3.92;2.85;;;;;;;14.28;46.44;99575.97;5118176;28;20048;-80
2022/10/04 04:47:39;;;;;;;3.83;2.67;;;;;;;15.09;46.93;99706.16;5114223;28;20035;-79
2022/10/04 04:50:17;;;;;;;4.95;2.58;;;;;;;15.01;47.07;99716.16;5090461;28;20411;-79
2022/10/04 04:52:46;;;;;;;3.13;1.92;;;;;;;14.87;46.68;99696.72;5091913;28;20028;-79
2022/10/04 04:55:21;;;;;;;4.57;2.15;;;;;;;14.94;47.17;99709.00;5091968;28;20077;-79
2022/10/04 04:57:48;;;;;;;5.07;2.22;;;;;;;14.81;47.02;99685.03;5090176;28;20032;-79
2022/10/04 05:00:22;;;;;;;5.95;2.50;;;;;;;14.98;47.13;99714.72;5091346;28;20070;-79
2022/10/04 05:02:54;;;;;;;3.42;2.25;;;;;;;14.99;46.91;99745.63;5091539;28;20043;-79
2022/10/04 05:05:25;;;;;;;6.20;2.38;;;;;;;14.95;47.14;99733.75;5091550;28;20027;-79
2022/10/04 05:08:15;;;;;;;4.85;2.42;;;;;;;14.97;46.92;99730.88;5091472;28;20020;-79
2022/10/04 05:10:50;;;;;;;5.40;2.45;;;;;;;14.46;47.16;99641.81;5097959;28;20040;-79
2022/10/04 05:13:17;;;;;;;3.85;2.10;;;;;;;14.40;46.81;99650.56;5117078;28;20016;-79
2022/10/04 05:15:43;;;;;;;4.25;2.20;;;;;;;15.08;46.92;99740.94;5099156;28;20022;-79
2022/10/04 05:18:31;;;;;;;5.40;2.53;;;;;;;15.13;46.63;99735.81;5091860;28;20024;-79
2022/10/04 05:21:04;;;;;;;3.10;2.22;;;;;;;15.03;46.97;99724.75;5086125;28;20409;-79
2022/10/04 05:23:31;;;;;;;4.82;2.78;;;;;;;15.17;46.90;99737.06;5091467;28;20089;-78
2022/10/04 05:25:59;;;;;;;6.55;2.53;;;;;;;14.47;46.69;99637.31;5077405;28;20087;-79
2022/10/04 05:28:25;;;;;;;4.40;2.40;;;;;;;14.79;46.51;99687.06;5077537;28;20084;-79
2022/10/04 05:31:05;;;;;;;3.70;2.05;;;;;;;15.17;46.58;99751.16;5077129;28;20406;-80
2022/10/04 05:33:49;;;;;;;4.32;2.30;;;;;;;15.09;46.36;99718.63;5073680;28;20031;-80
2022/10/04 05:36:39;;;;;;;2.67;2.22;;;;;;;15.26;46.45;99757.94;5089923;28;20447;-79
2022/10/04 05:39:27;;;;;;;5.40;2.30;;;;;;;15.29;46.47;99750.56;5089663;28;20060;-79
2022/10/04 05:42:06;;;;;;;5.03;2.55;;;;;;;15.38;46.38;99765.31;5084524;28;20032;-79
2022/10/04 05:44:45;;;;;;;4.47;2.30;;;;;;;15.37;46.22;99763.66;5090781;28;20446;-79
2022/10/04 05:47:13;;;;;;;3.25;2.03;;;;;;;14.68;46.28;99658.41;5073861;28;20032;-79
2022/10/04 05:49:45;;;;;;;3.78;2.17;;;;;;;15.31;46.06;99754.66;5070819;28;20439;-79
2022/10/04 05:52:24;;;;;;;5.72;2.00;;;;;;;15.55;45.83;99777.19;5072743;28;20032;-79
2022/10/04 05:55:09;;;;;;;6.60;2.92;;;;;;;15.55;46.04;99777.19;5074285;28;20112;-79
2022/10/04 05:57:45;;;;;;;2.28;1.90;;;;;;;15.46;45.64;99757.13;5073960;28;20024;-79
2022/10/04 06:00:15;;;;;;;4.00;2.03;;;;;;;15.48;45.37;99747.91;5072573;28;20516;-79
2022/10/04 06:02:59;;;;;;;2.88;2.30;;;;;;;15.77;45.60;99792.00;5074216;28;20095;-79
2022/10/04 06:05:27;;;;;;;5.10;2.25;;;;;;;15.65;44.94;99780.31;5073603;28;20401;-79
2022/10/04 06:08:00;;;;;;;4.20;2.22;;;;;;;15.85;44.95;99801.63;5073934;28;20500;-79
2022/10/04 06:10:47;;;;;;;5.30;2.40;;;;;;;15.85;45.27;99805.09;5074160;28;20048;-80
2022/10/04 06:13:28;;;;;;;4.22;1.90;;;;;;;15.90;45.32;99807.13;5075058;28;20066;-79
2022/10/04 06:16:10;;;;;;;4.63;2.13;;;;;;;15.99;44.67;99803.25;5077418;28;20021;-79
2022/10/04 06:18:51;;;;;;;;;;;;;;;15.89;45.26;99793.00;5094985;28;20016;-79
2022/10/04 06:21:49;;;;;;;2.75;1.83;;;;;;;15.91;45.01;99776.81;5085126;28;20359;-79
2022/10/04 06:24:20;;;;;;;5.55;2.70;;;;;;;15.39;44.85;99713.75;5048912;28;20134;-79
2022/10/04 06:27:03;;;;;;;4.82;2.80;;;;;;;15.61;44.67;99763.13;5076558;28;20024;-80
2022/10/04 06:29:39;;;;;;;7.30;2.28;;;;;;;16.17;44.14;99811.41;5089167;28;20024;-79
2022/10/04 06:32:43;;;;;;;5.63;2.80;;;;;;;16.37;43.83;99814.06;5093437;28;20039;-79
2022/10/04 06:35:57;;;;;;;5.70;1.95;;;;;;;16.32;44.29;99816.50;5084933;28;20036;-79
2022/10/04 06:38:31;;;;;;;3.42;1.80;;;;;;;16.41;43.75;99817.94;5072549;28;20157;-79
2022/10/04 06:40:59;;;;;;;6.10;3.38;;;;;;;16.49;43.75;99812.38;5072380;28;20107;-79
2022/10/04 06:43:36;;;;;;;7.55;3.85;;;;;;;16.57;43.59;99822.00;5073201;28;20032;-79
2022/10/04 06:46:05;;;;;;;3.80;3.40;;;;;;;16.53;43.62;99818.13;5074191;28;20036;-79
2022/10/04 06:48:42;;;;;;;7.07;4.82;;;;;;;16.00;42.94;99737.47;5072854;28;20063;-79
2022/10/04 06:51:41;;;;;;;8.57;3.05;;;;;;;16.52;43.20;99819.97;5079127;28;20486;-79
2022/10/04 06:54:26;;;;;;;5.15;3.50;;;;;;;16.59;42.96;99825.28;5087024;28;20021;-79
2022/10/04 06:56:52;;;;;;;3.63;2.25;;;;;;;16.63;43.27;99821.16;5091457;28;20024;-79
2022/10/04 06:59:33;;;;;;;5.60;2.85;;;;;;;16.72;42.89;99817.25;5086653;28;20028;-79
2022/10/04 07:02:05;;;;;;;6.18;3.55;;;;;;;16.47;43.03;99779.78;5091015;28;20051;-79
2022/10/04 07:04:35;;;;;;;;;;;;;;;16.66;42.82;99822.63;5091699;28;20169;-79
2022/10/04 07:07:23;;;;;;;6.43;5.47;;;;;;;16.83;42.63;99829.94;5086272;28;19923;-79
2022/10/04 07:09:53;;;;;;;5.20;2.58;;;;;;;16.14;42.47;99720.44;5090185;28;20028;-79
2022/10/04 07:12:19;;;;;;;5.68;2.63;;;;;;;16.88;42.73;99834.63;5089649;28;20185;-79
2022/10/04 07:14:47;;;;;;;4.97;2.38;;;;;;;17.00;42.52;99838.25;5093462;28;20496;-79
2022/10/04 07:17:19;;;;;;;5.65;3.30;;;;;;;17.04;42.45;99834.13;5090352;28;20020;-80
2022/10/04 07:19:48;;;;;;;12.13;8.90;;;;;;;16.74;42.70;99806.38;5070937;28;20124;-79
2022/10/04 07:22:30;;;;;;;5.97;3.78;;;;;;;17.09;42.60;99842.34;5076574;28;20065;-80
2022/10/04 07:24:58;;;;;;;4.18;2.00;;;;;;;17.12;42.18;99852.59;5091494;28;20142;-79
2022/10/04 07:27:33;;;;;;;4.10;2.55;;;;;;;17.18;42.31;99852.78;5092121;28;20028;-79
2022/10/04 07:30:04;;;;;;;5.75;2.47;;;;;;;17.23;42.30;99842.28;5091346;28;20081;-79
2022/10/04 07:32:37;;;;;;;6.03;2.90;;;;;;;16.99;41.84;99795.78;5091716;28;20027;-79
2022/10/04 07:35:05;;;;;;;3.10;2.17;;;;;;;17.40;41.78;99860.25;5090939;28;20093;-79
2022/10/04 07:37:45;;;;;;;4.20;2.28;;;;;;;17.05;41.96;99786.94;5079574;28;20075;-79
2022/10/04 07:40:29;;;;;;;2.38;1.35;;;;;;;17.09;41.57;99823.69;5072709;28;20032;-79
2022/10/04 07:43:06;;;;;;;3.78;2.45;;;;;;;16.97;41.25;99801.34;5072560;28;20513;-77
2022/10/04 07:45:36;;;;;;;2.85;1.80;;;;;;;17.47;41.35;99858.34;5075416;28;20037;-78
2022/10/04 07:48:14;;;;;;;4.07;1.90;;;;;;;17.45;41.13;99832.91;5079485;28;20562;-79
2022/10/04 07:51:08;;;;;;;1.88;1.20;;;;;;;17.59;41.05;99850.47;5070053;28;20028;-80
2022/10/04 07:54:12;;;;;;;5.20;1.45;;;;;;;17.70;40.91;99854.31;5070897;28;20031;-78
2022/10/04 07:56:46;;;;;;;3.13;1.92;;;;;;;17.71;40.93;99851.44;5074855;28;20069;-79
2022/10/04 07:59:36;;;;;;;4.47;2.50;;;;;;;17.87;40.80;99852.78;5092228;28;20028;-79
2022/10/04 08:02:21;;;;;;;4.00;2.50;;;;;;;17.79;40.70;99821.78;5089627;28;20052;-80
2022/10/04 08:05:00;;;;;;;5.15;3.17;;;;;;;18.03;40.37;99846.91;5089861;28;20035;-79
2022/10/04 08:07:42;;;;;;;6.15;2.13;;;;;;;17.60;40.36;99763.19;5089525;28;20412;-79
2022/10/04 08:10:13;;;;;;;;;;;;;;;18.21;40.31;99851.47;5090621;28;20334;-79
2022/10/04 08:13:14;;;;;;;4.32;2.50;;;;;;;18.35;39.93;99850.28;5091802;28;19908;-80
2022/10/04 08:15:42;;;;;;;2.20;1.40;;;;;;;18.25;40.11;99855.31;5111435;28;20038;-80
2022/10/04 08:18:38;;;;;;;4.93;3.10;;;;;;;18.38;39.64;99860.53;5111416;28;20039;-79
2022/10/04 08:21:13;;;;;;;2.90;2.28;;;;;;;17.96;39.40;99773.19;5071745;28;20063;-79
2022/10/04 08:24:00;;;;;;;5.57;4.20;;;;;;;18.49;39.15;99853.66;5070030;28;20031;-79
2022/10/04 08:26:31;;;;;;;5.90;3.63;;;;;;;18.59;39.32;99855.84;5071036;28;20517;-79
2022/10/04 08:32:36;;;;;;;5.05;3.70;;;;;;;18.74;38.93;99848.28;5091286;28;20043;-79
2022/10/04 08:35:18;;;;;;;3.92;2.47;;;;;;;18.16;38.66;99741.72;5078936;28;20107;-78
2022/10/04 08:37:44;;;;;;;2.70;2.30;;;;;;;18.89;38.82;99855.94;5075825;28;20111;-80
2022/10/04 08:40:15;;;;;;;2.63;1.98;;;;;;;18.93;37.76;99852.56;5085942;28;20068;-80
2022/10/04 08:43:10;;;;;;;4.47;3.45;;;;;;;18.94;37.73;99848.84;5090099;28;20016;-80
2022/10/04 08:45:55;;;;;;;7.28;3.45;;;;;;;18.98;38.21;99855.41;5088597;28;20093;-80
2022/10/04 08:48:45;;;;;;;2.88;1.42;;;;;;;19.07;38.04;99849.72;5083325;28;20037;-78
2022/10/04 08:51:24;;;;;;;4.65;2.92;;;;;;;19.09;37.86;99855.69;5070819;28;20463;-79
2022/10/04 08:54:18;;;;;;;5.75;3.22;;;;;;;19.13;37.91;99856.84;5068801;28;20524;-79
2022/10/04 08:57:02;;;;;;;2.75;1.58;;;;;;;19.22;37.45;99858.19;5071431;28;20043;-79
2022/10/04 08:59:31;;;;;;;3.30;1.63;;;;;;;19.30;37.79;99858.69;5086148;28;20032;-79
2022/10/04 09:02:18;;;;;;;2.85;1.45;;;;;;;19.42;37.51;99866.78;5081657;28;20063;-78
2022/10/04 09:05:08;;;;;;;3.22;1.42;;;;;;;19.55;37.08;99861.25;5068625;28;20032;-78
2022/10/04 09:08:18;;;;;;;2.75;1.20;;;;;;;19.66;36.69;99856.97;5070630;28;20547;-79
2022/10/04 09:11:03;;;;;;;3.45;2.50;;;;;;;19.41;36.15;99794.72;5027267;28;20034;-79
2022/10/04 09:13:30;;;;;;;3.00;1.80;;;;;;;19.97;36.56;99867.41;5038817;28;20028;-76
2022/10/04 09:16:07;;;;;;;3.63;1.70;;;;;;;19.49;36.15;99781.00;5056152;28;20089;-79
2022/10/04 09:18:50;;;;;;;4.05;2.22;;;;;;;20.16;35.84;99845.88;5082012;28;20028;-79
2022/10/04 09:21:26;;;;;;;7.18;4.50;;;;;;;20.37;35.50;99863.25;5088921;28;20043;-78
2022/10/04 09:24:11;;;;;;;4.88;3.72;;;;;;;19.95;35.15;99807.84;5085233;28;20514;-78
2022/10/04 09:26:43;;;;;;;2.50;1.52;;;;;;;20.27;34.87;99843.19;5072017;28;20033;-79
2022/10/04 09:29:37;;;;;;;3.90;1.52;;;;;;;20.40;34.86;99854.75;5073284;28;20058;-78
2022/10/04 09:32:37;;;;;;;1.92;1.30;;;;;;;20.50;34.84;99860.34;5087806;28;20048;-79
2022/10/04 09:35:23;;;;;;;4.80;3.58;;;;;;;20.64;34.89;99856.38;5069324;28;20421;-78
2022/10/04 09:38:03;;;;;;;3.58;2.50;;;;;;;20.89;34.78;99873.03;5072100;28;20470;-79
2022/10/04 09:40:54;;;;;;;5.00;2.80;;;;;;;20.78;34.75;99814.00;5074680;28;20513;-78
2022/10/04 09:43:28;;;;;;;3.22;1.50;;;;;;;21.30;34.01;99863.13;5082554;28;20047;-79
2022/10/04 09:46:02;;;;;;;4.45;2.40;;;;;;;21.52;33.77;99856.00;5074800;28;20029;-79
2022/10/04 09:48:38;;;;;;;6.70;4.95;;;;;;;21.66;33.02;99842.28;5074505;28;20504;-79
2022/10/04 09:51:29;;;;;;;4.68;2.83;;;;;;;21.66;32.80;99843.09;5073255;28;20035;-79
2022/10/04 09:54:18;;;;;;;6.97;4.97;;;;;;;21.80;32.61;99848.97;5077553;28;20494;-79
2022/10/04 09:56:53;;;;;;;4.85;2.95;;;;;;;22.03;32.77;99846.16;5093265;28;20508;-78
2022/10/04 09:59:22;;;;;;;1.90;1.48;;;;;;;22.10;32.34;99844.09;5092807;28;20024;-79
2022/10/04 10:01:59;;;;;;;4.88;3.33;;;;;;;22.21;31.57;99837.00;5092487;28;20071;-78
2022/10/04 10:04:43;;;;;;;3.85;2.65;;;;;;;21.88;32.08;99854.75;5083530;28;20562;-79
2022/10/04 10:07:59;;;;;;;4.80;1.92;;;;;;;21.55;32.54;99855.53;5074089;28;20029;-79
2022/10/04 10:13:49;;;;;;;3.10;1.83;;;;;;;21.83;32.35;99843.91;5093465;28;20055;-79
2022/10/04 10:16:29;;;;;;;3.63;1.42;;;;;;;22.05;32.11;99848.59;5085120;28;20507;-78
2022/10/04 10:19:16;;;;;;;4.00;1.70;;;;;;;21.82;32.30;99846.84;5076420;28;20024;-79
2022/10/04 10:22:00;;;;;;;1.90;1.10;;;;;;;22.02;32.14;99844.47;5089476;28;20107;-79
2022/10/04 10:24:53;;;;;;;2.78;1.50;;;;;;;22.29;31.82;99851.91;5078194;28;20489;-77
2022/10/04 10:27:34;;;;;;;4.00;2.00;;;;;;;22.47;31.66;99841.69;5079024;28;20036;-79
2022/10/04 10:30:17;;;;;;;3.72;2.15;;;;;;;21.66;31.16;99742.84;5077117;28;20047;-79
2022/10/04 10:33:10;;;;;;;2.25;1.00;;;;;;;22.07;31.00;99849.16;5080960;28;20067;-78
2022/10/04 10:36:14;;;;;;;3.63;2.30;;;;;;;22.31;30.46;99844.44;5072841;28;20405;-78
2022/10/04 10:38:42;;;;;;;4.25;1.48;;;;;;;22.76;30.65;99845.03;5084207;28;20077;-78
2022/10/04 10:41:24;;;;;;;4.22;2.00;;;;;;;23.10;30.10;99853.03;5093506;28;20050;-79
2022/10/04 10:43:57;;;;;;;2.65;1.00;;;;;;;22.94;29.35;99795.47;5093809;28;20044;-78
2022/10/04 10:46:27;;;;;;;1.60;1.20;;;;;;;23.12;29.15;99815.88;5084929;28;20094;-80
2022/10/04 10:49:22;;;;;;;2.15;0.70;;;;;;;23.22;28.82;99832.16;5082559;28;20031;-78
2022/10/04 10:52:10;;;;;;;3.50;1.88;;;;;;;23.33;29.10;99836.56;5089719;28;20484;-79
2022/10/04 10:54:54;;;;;;;3.80;3.25;;;;;;;23.19;29.09;99835.34;5078108;28;20497;-78
2022/10/04 10:57:41;;;;;;;4.47;3.33;;;;;;;22.82;29.35;99849.44;5092592;28;20023;-79
2022/10/04 11:00:19;;;;;;;3.45;2.58;;;;;;;22.34;29.72;99835.88;5085237;28;20386;-79
2022/10/04 11:03:06;;;;;;;2.28;1.13;;;;;;;22.12;30.08;99847.34;5091458;28;20027;-78
2022/10/04 11:05:37;;;;;;;2.40;1.90;;;;;;;21.96;30.49;99850.84;5089039;28;20523;-79
2022/10/04 11:08:33;;;;;;;2.35;1.10;;;;;;;21.80;30.04;99844.41;5071263;28;20032;-79
2022/10/04 11:11:08;;;;;;;2.25;1.48;;;;;;;21.64;29.98;99830.97;5071539;28;20120;-78
2022/10/04 11:14:10;;;;;;;2.05;1.00;;;;;;;21.65;30.49;99843.34;5073249;28;20028;-79
2022/10/04 11:16:58;;;;;;;;;;;;;;;21.40;31.00;99847.19;5073390;28;20024;-78
2022/10/04 11:19:46;;;;;;;2.95;1.98;;;;;;;21.45;31.36;99847.28;5072944;28;19908;-79
2022/10/04 11:22:33;;;;;;;3.25;1.13;;;;;;;21.36;31.96;99866.72;5079719;28;20084;-79
2022/10/04 11:25:34;;;;;;;1.83;1.38;;;;;;;21.19;34.07;99864.75;5091587;28;20031;-78
2022/10/04 11:28:37;;;;;;;1.80;1.15;;;;;;;21.05;33.86;99868.78;5092735;28;20024;-78
2022/10/04 11:31:22;;;;;;;2.35;0.98;;;;;;;20.97;33.85;99868.34;5093083;28;20066;-79
2022/10/04 11:34:25;;;;;;;3.28;1.13;;;;;;;20.85;34.19;99866.50;5092728;28;20024;-78
2022/10/04 11:37:30;;;;;;;2.53;1.05;;;;;;;20.49;34.32;99831.91;5089644;28;20028;-79
2022/10/04 11:40:32;;;;;;;1.73;1.08;;;;;;;20.69;34.60;99869.06;5092775;28;20047;-79
2022/10/04 11:43:01;;;;;;;2.95;1.70;;;;;;;20.69;34.46;99872.56;5091262;28;20564;-78
2022/10/04 11:46:00;;;;;;;2.60;0.90;;;;;;;20.29;34.97;99800.06;5089964;28;20027;-78
2022/10/04 11:49:01;;;;;;;1.67;1.42;;;;;;;20.54;34.99;99840.06;5071157;28;20038;-78
2022/10/04 11:52:08;;;;;;;2.88;1.90;;;;;;;20.54;35.08;99848.09;5067349;28;20043;-79
2022/10/04 11:54:52;;;;;;;3.28;1.40;;;;;;;20.77;34.43;99868.72;5070793;28;20402;-79
2022/10/04 11:57:39;;;;;;;4.40;2.40;;;;;;;20.74;34.58;99867.31;5071967;28;20489;-78
2022/10/04 12:00:17;;;;;;;2.03;1.17;;;;;;;20.44;33.94;99840.66;5071262;28;20060;-79
2022/10/04 12:02:46;;;;;;;5.57;1.30;;;;;;;20.74;34.16;99870.00;5091121;28;20507;-78
2022/10/04 12:05:14;;;;;;;1.92;0.82;;;;;;;20.67;33.44;99860.44;5090591;28;20031;-78
2022/10/04 12:07:42;;;;;;;1.00;0.90;;;;;;;20.59;33.11;99867.81;5076357;28;20036;-79
2022/10/04 12:10:27;;;;;;;2.33;0.88;;;;;;;20.38;33.28;99828.16;5090419;28;20527;-78
2022/10/04 12:13:08;;;;;;;1.10;0.80;;;;;;;20.72;32.79;99871.28;5090922;28;20116;-78
2022/10/04 12:15:51;;;;;;;1.35;0.80;;;;;;;20.74;32.73;99878.06;5070497;28;20031;-78
2022/10/04 12:18:38;;;;;;;1.77;0.85;;;;;;;20.76;33.10;99884.00;5078725;28;20040;-78
2022/10/04 12:21:43;;;;;;;2.88;0.90;;;;;;;20.38;32.62;99838.06;5076735;28;20031;-78
2022/10/04 12:24:23;;;;;;;1.13;0.90;;;;;;;20.56;32.67;99878.19;5076117;28;20040;-79
2022/10/04 12:27:26;;;;;;;3.90;1.45;;;;;;;20.53;32.45;99881.34;5077802;28;20034;-78
2022/10/04 12:30:10;;;;;;;2.80;0.82;;;;;;;20.57;32.53;99877.13;5089260;28;20038;-79
2022/10/04 12:32:57;;;;;;;4.82;0.88;;;;;;;20.61;32.70;99876.44;5078639;28;20033;-79
2022/10/04 12:35:41;;;;;;;1.45;0.70;;;;;;;20.73;32.40;99879.09;5069934;28;20059;-79
2022/10/04 12:38:20;;;;;;;1.42;0.95;;;;;;;20.78;32.55;99883.75;5081199;28;20076;-78